Time;durP1;ratioP1;P1;durP2;ratioP2;P2;SDS_P1;SDS_P2;PMS_P1;PMS_P2;Temp;Humidity;BMP_temperature;BMP_pressure;BME280_temperature;BME280_humidity;BME280_pressure;Samples;Min_cycle;Max_cycle;Signal;HPM_P1;HPM_P2
2023/10/26 00:00:03;;;;;;;;;;;;;;;10.58;100.00;98736.70;107532;277;114972;-53
2023/10/26 00:02:43;;;;;;;;;;;;;;;10.56;100.00;98735.16;107562;277;97095;-57
2023/10/26 00:05:24;;;;;;;;;;;;;;;10.59;100.00;98733.45;107552;277;96871;-58
2023/10/26 00:08:03;;;;;;;;;;;;;;;10.62;100.00;98728.17;107531;277;119829;-53
2023/10/26 00:10:40;;;;;;;;;;;;;;;10.64;100.00;98725.58;107509;277;105360;-54
2023/10/26 00:13:19;;;;;;;;;;;;;;;10.67;100.00;98727.17;107519;277;114067;-54
2023/10/26 00:15:52;;;;;;;;;;;;;;;10.70;100.00;98728.48;107476;277;97505;-53
2023/10/26 00:18:24;;;;;;;;;;;;;;;10.69;100.00;98724.04;107541;277;95710;-57
2023/10/26 00:21:04;;;;;;;;;;;;;;;10.70;100.00;98719.13;107451;277;120354;-57
2023/10/26 00:23:40;;;;;;;;;;;;;;;10.68;100.00;98713.27;107519;277;104378;-52
2023/10/26 00:26:26;;;;;;;;;;;;;;;10.68;100.00;98711.21;107487;277;114763;-52
2023/10/26 00:29:07;;;;;;;;;;;;;;;10.69;100.00;98714.58;107558;277;96512;-53
2023/10/26 00:31:47;;;;;;;;;;;;;;;10.70;100.00;98712.06;107530;277;97919;-52
2023/10/26 00:34:21;;;;;;;;;;;;;;;10.68;100.00;98709.77;107473;277;120230;-53
2023/10/26 00:37:00;;;;;;;;;;;;;;;10.71;100.00;98702.96;107483;277;104079;-53
2023/10/26 00:39:38;;;;;;;;;;;;;;;10.72;100.00;98701.64;107463;277;113185;-56
2023/10/26 00:42:12;;;;;;;;;;;;;;;10.70;100.00;98700.69;107546;277;96911;-54
2023/10/26 00:44:49;;;;;;;;;;;;;;;10.69;100.00;98691.84;107567;277;97017;-56
2023/10/26 00:47:26;;;;;;;;;;;;;;;10.72;100.00;98692.67;107572;277;121109;-52
2023/10/26 00:50:01;;;;;;;;;;;;;;;10.74;100.00;98687.69;107566;277;106314;-53
2023/10/26 00:52:35;;;;;;;;;;;;;;;10.77;100.00;98687.08;107572;277;113693;-54
2023/10/26 00:55:11;;;;;;;;;;;;;;;10.78;100.00;98684.52;107516;273;96150;-52
2023/10/26 00:57:47;;;;;;;;;;;;;;;10.80;100.00;98681.90;107442;277;96162;-51
2023/10/26 01:00:21;;;;;;;;;;;;;;;10.82;100.00;98681.43;107475;271;120623;-52
2023/10/26 01:03:03;;;;;;;;;;;;;;;10.82;100.00;98678.09;107506;278;104633;-53
2023/10/26 01:05:51;;;;;;;;;;;;;;;10.84;100.00;98675.90;108217;278;113541;-53
2023/10/26 01:08:30;;;;;;;;;;;;;;;10.87;100.00;98669.65;107416;278;96408;-56
2023/10/26 01:11:07;;;;;;;;;;;;;;;10.88;100.00;98671.46;107433;278;96853;-56
2023/10/26 01:13:45;;;;;;;;;;;;;;;10.91;100.00;98669.88;107506;278;122345;-52
2023/10/26 01:16:32;;;;;;;;;;;;;;;10.92;100.00;98671.89;107469;278;105634;-52
2023/10/26 01:19:08;;;;;;;;;;;;;;;10.95;100.00;98668.23;107496;278;115576;-56
2023/10/26 01:21:55;;;;;;;;;;;;;;;10.97;100.00;98667.10;107498;278;96567;-58
2023/10/26 01:24:34;;;;;;;;;;;;;;;10.99;100.00;98671.32;107498;278;96841;-57
2023/10/26 01:27:17;;;;;;;;;;;;;;;11.07;100.00;98671.00;107507;278;120615;-57
2023/10/26 01:29:55;;;;;;;;;;;;;;;11.11;100.00;98669.69;107493;278;105715;-55
2023/10/26 01:32:37;;;;;;;;;;;;;;;11.07;100.00;98669.77;107458;278;113690;-55
2023/10/26 01:35:23;;;;;;;;;;;;;;;11.06;100.00;98668.29;107450;279;96836;-57
2023/10/26 01:38:05;;;;;;;;;;;;;;;11.11;100.00;98670.02;107572;278;97782;-55
2023/10/26 01:40:39;;;;;;;;;;;;;;;11.09;100.00;98669.55;107464;279;120518;-56
2023/10/26 01:43:13;;;;;;;;;;;;;;;11.04;100.00;98670.56;107482;279;105396;-57
2023/10/26 01:45:51;;;;;;;;;;;;;;;11.04;100.00;98670.52;107494;278;113219;-56
2023/10/26 01:48:28;;;;;;;;;;;;;;;11.05;100.00;98667.75;107500;278;97334;-51
2023/10/26 01:51:05;;;;;;;;;;;;;;;11.02;100.00;98665.27;107484;278;97961;-51
2023/10/26 01:53:44;;;;;;;;;;;;;;;11.01;100.00;98666.60;107443;278;120194;-57
2023/10/26 01:56:20;;;;;;;;;;;;;;;11.02;100.00;98661.59;107400;279;104751;-56
2023/10/26 01:58:53;;;;;;;;;;;;;;;11.06;100.00;98658.17;107404;279;114853;-52
2023/10/26 02:01:30;;;;;;;;;;;;;;;11.08;100.00;98658.77;107426;279;97239;-52
2023/10/26 02:04:03;;;;;;;;;;;;;;;11.09;100.00;98655.81;107470;279;97436;-52
2023/10/26 02:06:40;;;;;;;;;;;;;;;11.09;100.00;98656.52;107455;279;120659;-52
2023/10/26 02:09:21;;;;;;;;;;;;;;;11.10;100.00;98657.24;107409;279;105103;-52
2023/10/26 02:12:00;;;;;;;;;;;;;;;11.06;100.00;98655.66;107474;279;114716;-54
2023/10/26 02:14:35;;;;;;;;;;;;;;;11.11;100.00;98654.40;107514;279;97156;-57
2023/10/26 02:17:10;;;;;;;;;;;;;;;11.16;100.00;98655.66;107485;279;97865;-56
2023/10/26 02:19:48;;;;;;;;;;;;;;;11.21;100.00;98650.90;107539;279;120134;-56
2023/10/26 02:22:27;;;;;;;;;;;;;;;11.14;100.00;98649.55;107576;279;105342;-52
2023/10/26 02:25:04;;;;;;;;;;;;;;;11.14;100.00;98646.11;107447;279;114400;-53
2023/10/26 02:27:38;;;;;;;;;;;;;;;11.15;100.00;98650.40;107518;279;96134;-52
2023/10/26 02:30:12;;;;;;;;;;;;;;;11.15;100.00;98650.45;107450;279;97775;-52
2023/10/26 02:32:46;;;;;;;;;;;;;;;11.13;100.00;98652.41;107457;279;119997;-54
2023/10/26 02:35:21;;;;;;;;;;;;;;;11.10;100.00;98653.30;107471;279;105621;-53
2023/10/26 02:37:58;;;;;;;;;;;;;;;11.09;100.00;98656.10;107495;279;112930;-57
2023/10/26 02:40:35;;;;;;;;;;;;;;;11.06;100.00;98655.15;107414;279;96768;-57
2023/10/26 02:43:11;;;;;;;;;;;;;;;11.02;100.00;98649.61;107441;279;97699;-54
2023/10/26 02:46:00;;;;;;;;;;;;;;;11.00;100.00;98650.64;107452;279;120832;-53
2023/10/26 02:48:32;;;;;;;;;;;;;;;10.96;100.00;98645.02;107452;279;105033;-55
2023/10/26 02:51:07;;;;;;;;;;;;;;;10.90;100.00;98645.05;107067;279;508328;-55
2023/10/26 02:53:39;;;;;;;;;;;;;;;10.83;100.00;98641.09;107468;279;94780;-56
2023/10/26 02:56:17;;;;;;;;;;;;;;;10.75;100.00;98642.26;107444;278;97443;-56
2023/10/26 02:58:56;;;;;;;;;;;;;;;10.62;100.00;98640.65;107546;278;120499;-58
2023/10/26 03:01:39;;;;;;;;;;;;;;;10.50;100.00;98642.59;107523;278;104976;-57
2023/10/26 03:04:16;;;;;;;;;;;;;;;10.42;100.00;98641.05;107537;279;115154;-56
2023/10/26 03:06:52;;;;;;;;;;;;;;;10.37;100.00;98641.62;107589;278;96782;-56
2023/10/26 03:09:27;;;;;;;;;;;;;;;10.32;100.00;98644.36;107608;278;95892;-54
2023/10/26 03:12:03;;;;;;;;;;;;;;;10.29;100.00;98640.88;107650;278;119905;-54
2023/10/26 03:14:43;;;;;;;;;;;;;;;10.27;100.00;98637.58;107546;278;105569;-52
2023/10/26 03:17:19;;;;;;;;;;;;;;;10.16;100.00;98633.13;107537;278;114468;-53
2023/10/26 03:20:05;;;;;;;;;;;;;;;10.09;100.00;98628.39;107462;278;96274;-52
2023/10/26 03:22:43;;;;;;;;;;;;;;;10.01;100.00;98626.67;107496;278;98332;-52
2023/10/26 03:25:18;;;;;;;;;;;;;;;9.95;100.00;98625.46;107449;278;119070;-52
2023/10/26 03:27:55;;;;;;;;;;;;;;;9.86;100.00;98626.99;107529;278;104257;-55
2023/10/26 03:30:32;;;;;;;;;;;;;;;9.77;100.00;98630.69;107478;279;114429;-55
2023/10/26 03:33:07;;;;;;;;;;;;;;;9.72;100.00;98634.41;107507;278;96764;-56
2023/10/26 03:35:41;;;;;;;;;;;;;;;9.67;100.00;98626.80;107512;278;97856;-56
2023/10/26 03:38:22;;;;;;;;;;;;;;;9.71;100.00;98617.45;107563;278;121219;-52
2023/10/26 03:41:02;;;;;;;;;;;;;;;9.64;100.00;98618.88;107552;278;106089;-51
2023/10/26 03:43:41;;;;;;;;;;;;;;;9.51;100.00;98618.58;107529;279;114497;-54
2023/10/26 03:46:25;;;;;;;;;;;;;;;9.44;100.00;98617.92;107503;278;96867;-53
2023/10/26 03:49:03;;;;;;;;;;;;;;;9.36;100.00;98614.20;107584;278;97489;-57
2023/10/26 03:51:41;;;;;;;;;;;;;;;9.29;100.00;98610.17;107512;278;120228;-57
2023/10/26 03:54:20;;;;;;;;;;;;;;;9.24;100.00;98611.14;107535;278;104416;-57
2023/10/26 03:56:56;;;;;;;;;;;;;;;9.18;100.00;98604.12;107490;278;114115;-57
2023/10/26 03:59:34;;;;;;;;;;;;;;;9.17;100.00;98600.74;107458;278;95571;-56
2023/10/26 04:02:08;;;;;;;;;;;;;;;9.16;100.00;98600.29;107505;278;96054;-53
2023/10/26 04:04:43;;;;;;;;;;;;;;;9.20;100.00;98594.70;107395;279;122422;-58
2023/10/26 04:07:20;;;;;;;;;;;;;;;9.21;100.00;98590.69;107469;278;103492;-53
2023/10/26 04:09:58;;;;;;;;;;;;;;;9.19;100.00;98578.25;107490;278;112973;-57
2023/10/26 04:12:35;;;;;;;;;;;;;;;9.20;100.00;98574.33;107500;278;96089;-53
2023/10/26 04:15:12;;;;;;;;;;;;;;;9.20;100.00;98575.41;107510;278;97203;-53
2023/10/26 04:17:50;;;;;;;;;;;;;;;9.22;100.00;98575.85;107520;278;121409;-56
2023/10/26 04:20:24;;;;;;;;;;;;;;;9.23;100.00;98578.04;107508;278;105412;-57
2023/10/26 04:23:04;;;;;;;;;;;;;;;9.20;100.00;98574.88;107543;278;113945;-53
2023/10/26 04:25:41;;;;;;;;;;;;;;;9.22;100.00;98568.84;107530;278;97101;-57
2023/10/26 04:28:21;;;;;;;;;;;;;;;9.22;100.00;98559.19;107568;278;96247;-52
2023/10/26 04:30:57;;;;;;;;;;;;;;;9.20;100.00;98556.77;107492;278;121151;-57
2023/10/26 04:33:38;;;;;;;;;;;;;;;9.20;100.00;98552.63;107556;278;104752;-57
2023/10/26 04:36:20;;;;;;;;;;;;;;;9.11;100.00;98550.30;107438;278;114793;-57
2023/10/26 04:38:53;;;;;;;;;;;;;;;9.05;100.00;98549.04;107480;278;96305;-57
2023/10/26 04:41:29;;;;;;;;;;;;;;;8.95;100.00;98546.38;107473;278;96572;-57
2023/10/26 04:44:01;;;;;;;;;;;;;;;8.85;100.00;98543.99;107495;278;120951;-52
2023/10/26 04:46:41;;;;;;;;;;;;;;;8.76;100.00;98544.24;107491;278;105463;-50
2023/10/26 04:49:18;;;;;;;;;;;;;;;8.71;100.00;98547.81;107540;278;114128;-53
2023/10/26 04:51:51;;;;;;;;;;;;;;;8.71;100.00;98550.34;107537;278;97065;-51
2023/10/26 04:54:27;;;;;;;;;;;;;;;8.71;100.00;98547.23;107558;278;97511;-54
2023/10/26 04:57:04;;;;;;;;;;;;;;;8.75;100.00;98548.52;107556;278;120267;-53
2023/10/26 04:59:39;;;;;;;;;;;;;;;8.74;100.00;98542.16;107517;278;105607;-58
2023/10/26 05:02:13;;;;;;;;;;;;;;;8.76;100.00;98540.06;107584;278;114142;-55
2023/10/26 05:04:50;;;;;;;;;;;;;;;8.80;100.00;98534.84;107510;278;96393;-53
2023/10/26 05:07:23;;;;;;;;;;;;;;;8.86;100.00;98531.63;107623;278;97447;-54
2023/10/26 05:10:02;;;;;;;;;;;;;;;8.85;100.00;98535.90;107552;278;121382;-52
2023/10/26 05:12:39;;;;;;;;;;;;;;;8.89;100.00;98540.39;107562;278;104865;-61
2023/10/26 05:15:18;;;;;;;;;;;;;;;8.91;100.00;98537.80;107464;278;114887;-56
2023/10/26 05:17:56;;;;;;;;;;;;;;;8.95;100.00;98539.73;107468;278;96450;-56
2023/10/26 05:20:30;;;;;;;;;;;;;;;8.96;100.00;98538.30;107484;278;97173;-56
2023/10/26 05:23:03;;;;;;;;;;;;;;;8.99;100.00;98540.30;107551;278;120565;-56
2023/10/26 05:25:38;;;;;;;;;;;;;;;9.01;100.00;98538.34;107486;278;104060;-56
2023/10/26 05:28:13;;;;;;;;;;;;;;;9.00;100.00;98540.43;107474;278;113376;-53
2023/10/26 05:30:50;;;;;;;;;;;;;;;9.07;100.00;98542.95;107454;278;96483;-52
2023/10/26 05:33:28;;;;;;;;;;;;;;;9.13;100.00;98544.64;107502;279;96677;-54
2023/10/26 05:36:09;;;;;;;;;;;;;;;9.16;100.00;98537.84;107480;278;120807;-53
2023/10/26 05:38:44;;;;;;;;;;;;;;;9.20;100.00;98535.74;107584;278;104410;-54
2023/10/26 05:41:23;;;;;;;;;;;;;;;9.25;100.00;98533.70;107523;278;115320;-54
2023/10/26 05:43:56;;;;;;;;;;;;;;;9.33;100.00;98534.13;107497;278;96657;-57
2023/10/26 05:46:28;;;;;;;;;;;;;;;9.36;100.00;98531.79;107533;278;96910;-57
2023/10/26 05:49:06;;;;;;;;;;;;;;;9.35;100.00;98532.91;107574;279;120696;-52
2023/10/26 05:51:45;;;;;;;;;;;;;;;9.38;100.00;98535.07;107570;278;104558;-52
2023/10/26 05:54:19;;;;;;;;;;;;;;;9.41;100.00;98534.23;107437;278;115378;-57
2023/10/26 05:56:53;;;;;;;;;;;;;;;9.46;100.00;98539.23;107552;278;95658;-57
2023/10/26 05:59:29;;;;;;;;;;;;;;;9.44;100.00;98538.38;107515;278;97103;-55
2023/10/26 06:02:08;;;;;;;;;;;;;;;9.46;100.00;98537.45;107487;278;120916;-52
2023/10/26 06:04:46;;;;;;;;;;;;;;;9.51;100.00;98539.38;107490;278;105129;-53
2023/10/26 06:07:22;;;;;;;;;;;;;;;9.54;100.00;98536.98;107493;278;113279;-56
2023/10/26 06:09:57;;;;;;;;;;;;;;;9.59;100.00;98535.58;107506;278;95729;-57
2023/10/26 06:12:33;;;;;;;;;;;;;;;9.64;100.00;98533.80;107500;279;97406;-56
2023/10/26 06:15:16;;;;;;;;;;;;;;;9.68;100.00;98533.21;107465;279;120934;-58
2023/10/26 06:17:50;;;;;;;;;;;;;;;9.69;100.00;98540.63;107537;278;105926;-54
2023/10/26 06:20:27;;;;;;;;;;;;;;;9.72;100.00;98543.09;107496;278;115175;-54
2023/10/26 06:23:11;;;;;;;;;;;;;;;9.71;100.00;98536.95;107468;278;96697;-55
2023/10/26 06:25:44;;;;;;;;;;;;;;;9.72;100.00;98534.28;107528;278;97377;-55
2023/10/26 06:28:20;;;;;;;;;;;;;;;9.80;100.00;98535.64;107529;278;120379;-59
2023/10/26 06:30:53;;;;;;;;;;;;;;;9.85;100.00;98532.04;107525;278;104819;-59
2023/10/26 06:33:31;;;;;;;;;;;;;;;9.88;100.00;98528.31;107577;278;113727;-57
2023/10/26 06:36:06;;;;;;;;;;;;;;;9.95;100.00;98527.33;107534;278;96031;-57
2023/10/26 06:38:40;;;;;;;;;;;;;;;9.99;100.00;98530.05;107446;279;99012;-53
2023/10/26 06:41:14;;;;;;;;;;;;;;;10.04;100.00;98529.92;107524;278;120776;-56
2023/10/26 06:43:55;;;;;;;;;;;;;;;10.09;100.00;98525.66;107518;279;103311;-58
2023/10/26 06:46:30;;;;;;;;;;;;;;;10.19;100.00;98524.40;107449;278;114333;-58
2023/10/26 06:49:05;;;;;;;;;;;;;;;10.29;100.00;98522.05;107506;278;96031;-53
2023/10/26 06:51:40;;;;;;;;;;;;;;;10.31;100.00;98524.98;107504;278;97258;-52
2023/10/26 06:54:15;;;;;;;;;;;;;;;10.36;100.00;98520.80;107529;278;120340;-58
2023/10/26 06:56:51;;;;;;;;;;;;;;;10.48;100.00;98509.14;107505;278;105890;-58
2023/10/26 06:59:32;;;;;;;;;;;;;;;10.53;100.00;98500.45;107557;278;114769;-57
2023/10/26 07:02:08;;;;;;;;;;;;;;;10.56;100.00;98496.52;107521;278;97143;-58
2023/10/26 07:04:42;;;;;;;;;;;;;;;10.65;100.00;98498.95;107552;279;97798;-56
2023/10/26 07:07:16;;;;;;;;;;;;;;;10.76;100.00;98495.90;107590;278;121574;-55
2023/10/26 07:09:58;;;;;;;;;;;;;;;10.82;100.00;98490.46;107523;278;105819;-56
2023/10/26 07:12:36;;;;;;;;;;;;;;;10.87;100.00;98484.93;107517;278;115618;-58
2023/10/26 07:15:11;;;;;;;;;;;;;;;10.89;100.00;98482.23;107468;278;96218;-57
2023/10/26 07:17:44;;;;;;;;;;;;;;;10.97;100.00;98479.75;107466;278;97253;-58
2023/10/26 07:20:24;;;;;;;;;;;;;;;11.04;100.00;98483.04;107491;279;120300;-59
2023/10/26 07:23:00;;;;;;;;;;;;;;;11.10;100.00;98493.16;107462;278;104936;-57
2023/10/26 07:25:37;;;;;;;;;;;;;;;11.13;100.00;98494.58;107472;279;113514;-56
2023/10/26 07:28:22;;;;;;;;;;;;;;;11.16;100.00;98494.69;107514;278;96469;-58
2023/10/26 07:31:02;;;;;;;;;;;;;;;11.15;100.00;98492.51;107604;278;97411;-57
2023/10/26 07:33:39;;;;;;;;;;;;;;;11.20;100.00;98494.98;107546;278;120846;-53
2023/10/26 07:36:12;;;;;;;;;;;;;;;11.23;100.00;98491.20;107516;278;105864;-54
2023/10/26 07:38:52;;;;;;;;;;;;;;;11.25;100.00;98489.58;107498;278;114324;-54
2023/10/26 07:41:30;;;;;;;;;;;;;;;11.31;100.00;98480.23;107486;278;96009;-53
2023/10/26 07:44:10;;;;;;;;;;;;;;;11.37;100.00;98482.55;107521;278;97227;-56
2023/10/26 07:46:47;;;;;;;;;;;;;;;11.37;100.00;98483.27;107437;278;121308;-57
2023/10/26 07:49:22;;;;;;;;;;;;;;;11.38;100.00;98476.30;107498;278;105797;-57
2023/10/26 07:52:01;;;;;;;;;;;;;;;11.40;100.00;98481.45;107488;277;112973;-56
2023/10/26 07:54:35;;;;;;;;;;;;;;;11.43;100.00;98477.31;107537;277;95646;-53
2023/10/26 07:57:13;;;;;;;;;;;;;;;11.39;100.00;98473.08;107529;277;96877;-53
2023/10/26 07:59:51;;;;;;;;;;;;;;;11.39;100.00;98473.52;107579;277;119454;-56
2023/10/26 08:02:24;;;;;;;;;;;;;;;11.29;100.00;98475.12;107650;277;104731;-57
2023/10/26 08:05:00;;;;;;;;;;;;;;;11.30;100.00;98467.98;107599;277;113631;-56
2023/10/26 08:07:38;;;;;;;;;;;;;;;11.36;100.00;98467.14;107571;277;95140;-57
2023/10/26 08:10:14;;;;;;;;;;;;;;;11.41;100.00;98462.30;107525;277;97830;-58
2023/10/26 08:12:47;;;;;;;;;;;;;;;11.45;100.00;98459.04;107592;277;119332;-56
2023/10/26 08:15:22;;;;;;;;;;;;;;;11.48;100.00;98455.40;107535;277;105060;-58
2023/10/26 08:18:00;;;;;;;;;;;;;;;11.52;100.00;98455.32;107511;277;113578;-59
2023/10/26 08:20:34;;;;;;;;;;;;;;;11.57;100.00;98458.23;107554;277;97973;-59
2023/10/26 08:23:14;;;;;;;;;;;;;;;11.63;100.00;98462.83;107611;277;97378;-54
2023/10/26 08:25:47;;;;;;;;;;;;;;;11.61;100.00;98463.44;107538;277;119898;-54
2023/10/26 08:28:25;;;;;;;;;;;;;;;11.58;100.00;98462.45;107583;277;104282;-53
2023/10/26 08:31:00;;;;;;;;;;;;;;;11.58;100.00;98458.52;107581;277;115009;-53
2023/10/26 08:33:34;;;;;;;;;;;;;;;11.63;100.00;98456.92;107532;277;95769;-57
2023/10/26 08:36:08;;;;;;;;;;;;;;;11.62;100.00;98457.40;107556;277;97362;-58
2023/10/26 08:38:43;;;;;;;;;;;;;;;11.68;100.00;98451.41;107602;277;120560;-54
2023/10/26 08:41:21;;;;;;;;;;;;;;;11.71;100.00;98452.51;107461;277;107460;-54
2023/10/26 08:43:54;;;;;;;;;;;;;;;11.72;100.00;98449.88;107525;277;113851;-53
2023/10/26 08:46:30;;;;;;;;;;;;;;;11.71;100.00;98445.59;107527;277;97369;-54
2023/10/26 08:49:10;;;;;;;;;;;;;;;11.73;100.00;98440.27;107632;277;95789;-59
2023/10/26 08:51:43;;;;;;;;;;;;;;;11.74;100.00;98437.95;107625;277;120999;-59
2023/10/26 08:54:18;;;;;;;;;;;;;;;11.80;100.00;98429.50;107665;277;105161;-53
2023/10/26 08:56:52;;;;;;;;;;;;;;;11.81;100.00;98425.52;107500;277;114226;-53
2023/10/26 08:59:28;;;;;;;;;;;;;;;11.86;100.00;98425.02;107606;277;95142;-54
2023/10/26 09:02:04;;;;;;;;;;;;;;;11.93;100.00;98424.73;107641;277;97717;-52
2023/10/26 09:04:37;;;;;;;;;;;;;;;11.92;100.00;98427.00;107606;277;120481;-57
2023/10/26 09:07:13;;;;;;;;;;;;;;;11.88;100.00;98427.47;107489;277;105297;-58
2023/10/26 09:09:47;;;;;;;;;;;;;;;11.87;100.00;98426.76;107538;277;114853;-58
2023/10/26 09:12:20;;;;;;;;;;;;;;;11.88;100.00;98429.69;107462;278;97244;-55
2023/10/26 09:15:06;;;;;;;;;;;;;;;11.90;100.00;98418.19;107471;277;97343;-54
2023/10/26 09:17:40;;;;;;;;;;;;;;;11.95;100.00;98411.19;107650;277;119553;-52
2023/10/26 09:20:21;;;;;;;;;;;;;;;11.95;100.00;98407.40;107570;277;105482;-54
2023/10/26 09:22:55;;;;;;;;;;;;;;;11.95;100.00;98405.29;107603;277;114037;-59
2023/10/26 09:25:30;;;;;;;;;;;;;;;11.92;100.00;98401.98;107529;277;98776;-60
2023/10/26 09:28:07;;;;;;;;;;;;;;;11.95;100.00;98403.02;107594;277;97145;-58
2023/10/26 09:30:49;;;;;;;;;;;;;;;11.92;100.00;98391.71;107540;277;119853;-57
2023/10/26 09:33:30;;;;;;;;;;;;;;;11.87;100.00;98387.90;107577;277;104810;-53
2023/10/26 09:36:15;;;;;;;;;;;;;;;11.84;100.00;98390.46;107523;277;113131;-54
2023/10/26 09:38:56;;;;;;;;;;;;;;;11.81;100.00;98390.56;107504;277;96016;-54
2023/10/26 09:41:40;;;;;;;;;;;;;;;11.77;100.00;98391.86;107515;277;96723;-55
2023/10/26 09:44:16;;;;;;;;;;;;;;;11.74;100.00;98393.07;107511;277;121054;-57
2023/10/26 09:46:55;;;;;;;;;;;;;;;11.70;100.00;98402.73;107486;277;104388;-57
2023/10/26 09:49:30;;;;;;;;;;;;;;;11.66;100.00;98413.17;107537;277;114721;-60
2023/10/26 09:52:07;;;;;;;;;;;;;;;11.60;100.00;98410.95;107471;277;96610;-59
2023/10/26 09:54:46;;;;;;;;;;;;;;;11.53;100.00;98397.91;107510;277;96574;-55
2023/10/26 09:57:28;;;;;;;;;;;;;;;11.53;100.00;98386.16;107655;277;118694;-56
2023/10/26 10:00:00;;;;;;;;;;;;;;;11.55;100.00;98381.90;107627;277;105644;-55
2023/10/26 10:02:37;;;;;;;;;;;;;;;11.53;100.00;98383.20;107719;277;114090;-56
2023/10/26 10:05:45;;;;;;;;;;;;;;;11.51;100.00;98380.95;107678;277;95843;-55
2023/10/26 10:08:42;;;;;;;;;;;;;;;11.59;100.00;98366.31;107490;277;99644;-54
2023/10/26 10:11:25;;;;;;;;;;;;;;;11.57;100.00;98365.90;107436;277;120649;-54
2023/10/26 10:14:02;;;;;;;;;;;;;;;11.59;100.00;98367.83;107647;277;105248;-54
2023/10/26 10:16:56;;;;;;;;;;;;;;;11.58;100.00;98355.21;107622;277;114020;-52
2023/10/26 10:19:40;;;;;;;;;;;;;;;11.61;100.00;98355.00;107625;277;95861;-56
2023/10/26 10:22:42;;;;;;;;;;;;;;;11.64;100.00;98352.50;107624;277;96350;-57
2023/10/26 10:25:18;;;;;;;;;;;;;;;11.67;100.00;98349.85;107638;277;120625;-54
2023/10/26 10:28:14;;;;;;;;;;;;;;;11.66;100.00;98345.50;107679;277;104218;-58
2023/10/26 10:30:57;;;;;;;;;;;;;;;11.64;100.00;98344.77;107592;277;114375;-60
2023/10/26 10:33:35;;;;;;;;;;;;;;;11.64;100.00;98347.26;107638;277;95466;-53
2023/10/26 10:36:11;;;;;;;;;;;;;;;11.62;100.00;98345.28;107632;277;97498;-55
2023/10/26 10:38:46;;;;;;;;;;;;;;;11.56;100.00;98340.59;107684;277;120460;-56
2023/10/26 10:41:25;;;;;;;;;;;;;;;11.58;100.00;98342.30;107465;277;105895;-55
2023/10/26 10:44:05;;;;;;;;;;;;;;;11.57;100.00;98341.36;107626;277;113309;-55
2023/10/26 10:46:39;;;;;;;;;;;;;;;11.55;100.00;98340.89;107666;277;95860;-56
2023/10/26 10:49:25;;;;;;;;;;;;;;;11.54;100.00;98337.13;107278;277;462807;-57
2023/10/26 10:52:12;;;;;;;;;;;;;;;11.51;100.00;98333.95;107558;277;121724;-57
2023/10/26 10:54:56;;;;;;;;;;;;;;;11.53;100.00;98331.77;107625;277;104971;-53
2023/10/26 10:57:31;;;;;;;;;;;;;;;11.58;100.00;98331.95;107687;277;115230;-57
2023/10/26 11:00:08;;;;;;;;;;;;;;;11.62;100.00;98329.15;107622;277;95956;-55
2023/10/26 11:02:49;;;;;;;;;;;;;;;11.64;100.00;98328.44;107698;277;95470;-55
2023/10/26 11:05:36;;;;;;;;;;;;;;;11.58;100.00;98324.67;107672;277;119966;-56
2023/10/26 11:08:20;;;;;;;;;;;;;;;11.63;100.00;98328.73;107633;277;104775;-60
2023/10/26 11:10:56;;;;;;;;;;;;;;;11.67;100.00;98327.61;107594;277;114460;-59
2023/10/26 11:13:33;;;;;;;;;;;;;;;11.68;100.00;98324.13;107546;277;97099;-61
2023/10/26 11:16:16;;;;;;;;;;;;;;;11.67;100.00;98323.84;107481;277;97628;-61
2023/10/26 11:18:49;;;;;;;;;;;;;;;11.67;100.00;98321.33;107550;277;122535;-56
2023/10/26 11:21:29;;;;;;;;;;;;;;;11.67;100.00;98318.63;107550;277;103533;-56
2023/10/26 11:24:08;;;;;;;;;;;;;;;11.62;100.00;98314.82;107553;277;114898;-56
2023/10/26 11:26:43;;;;;;;;;;;;;;;11.68;100.00;98312.82;107511;277;95816;-54
2023/10/26 11:29:25;;;;;;;;;;;;;;;11.72;100.00;98314.02;107517;277;99541;-54
2023/10/26 11:32:03;;;;;;;;;;;;;;;11.71;100.00;98312.99;107576;277;121659;-54
2023/10/26 11:34:42;;;;;;;;;;;;;;;11.72;100.00;98308.35;107550;277;104803;-54
2023/10/26 11:37:15;;;;;;;;;;;;;;;11.73;100.00;98308.86;107459;277;114798;-57
2023/10/26 11:39:53;;;;;;;;;;;;;;;11.76;100.00;98307.39;107545;277;96576;-58
2023/10/26 11:42:47;;;;;;;;;;;;;;;11.83;100.00;98305.39;107545;277;95868;-59
2023/10/26 11:45:22;;;;;;;;;;;;;;;11.87;100.00;98304.95;107485;277;122052;-59
2023/10/26 11:47:56;;;;;;;;;;;;;;;11.91;100.00;98306.20;107560;277;104960;-58
2023/10/26 11:50:32;;;;;;;;;;;;;;;11.99;100.00;98305.22;107461;277;115383;-56
2023/10/26 11:53:13;;;;;;;;;;;;;;;12.04;100.00;98306.42;107468;277;98948;-55
2023/10/26 11:55:50;;;;;;;;;;;;;;;12.00;100.00;98308.33;107533;277;96996;-55
2023/10/26 11:58:29;;;;;;;;;;;;;;;11.99;100.00;98305.44;107595;277;122234;-55
2023/10/26 12:01:05;;;;;;;;;;;;;;;11.98;100.00;98306.46;107613;277;105922;-54
2023/10/26 12:03:48;;;;;;;;;;;;;;;11.96;100.00;98304.55;107481;277;114879;-59
2023/10/26 12:06:29;;;;;;;;;;;;;;;11.94;100.00;98299.26;107370;277;98402;-59
2023/10/26 12:09:13;;;;;;;;;;;;;;;12.00;100.00;98296.46;107597;277;96998;-59
2023/10/26 12:11:49;;;;;;;;;;;;;;;12.07;100.00;98295.27;107560;277;121666;-59
2023/10/26 12:14:25;;;;;;;;;;;;;;;12.13;100.00;98293.04;107542;277;104599;-55
2023/10/26 12:17:02;;;;;;;;;;;;;;;12.17;100.00;98288.91;107500;277;114318;-56
2023/10/26 12:19:35;;;;;;;;;;;;;;;12.22;100.00;98287.23;107518;277;97022;-61
2023/10/26 12:22:10;;;;;;;;;;;;;;;12.27;100.00;98286.89;107516;277;96146;-56
2023/10/26 12:24:43;;;;;;;;;;;;;;;12.28;100.00;98283.16;107587;277;121388;-58
2023/10/26 12:27:18;;;;;;;;;;;;;;;12.31;100.00;98283.31;107561;277;104925;-58
2023/10/26 12:29:54;;;;;;;;;;;;;;;12.34;100.00;98278.26;107619;277;114703;-60
2023/10/26 12:32:32;;;;;;;;;;;;;;;12.42;100.00;98280.14;107550;277;96878;-54
2023/10/26 12:35:05;;;;;;;;;;;;;;;12.51;100.00;98281.11;107590;277;96573;-53
2023/10/26 12:37:38;;;;;;;;;;;;;;;12.53;100.00;98280.16;107481;277;120387;-58
2023/10/26 12:40:12;;;;;;;;;;;;;;;12.53;100.00;98280.86;107574;277;105982;-59
2023/10/26 12:42:51;;;;;;;;;;;;;;;12.54;100.00;98278.26;107600;277;114898;-57
2023/10/26 12:45:26;;;;;;;;;;;;;;;12.55;100.00;98280.29;107468;277;98248;-58
2023/10/26 12:48:02;;;;;;;;;;;;;;;12.58;100.00;98277.06;107603;277;97943;-58
2023/10/26 12:50:41;;;;;;;;;;;;;;;12.62;100.00;98276.13;107537;277;122216;-59
2023/10/26 12:53:16;;;;;;;;;;;;;;;12.70;100.00;98274.18;107576;277;105015;-59
2023/10/26 12:55:49;;;;;;;;;;;;;;;12.80;100.00;98273.63;107589;277;113193;-59
2023/10/26 12:58:30;;;;;;;;;;;;;;;12.86;100.00;98274.93;107546;277;96692;-54
2023/10/26 13:01:10;;;;;;;;;;;;;;;12.93;100.00;98276.91;107525;277;96757;-54
2023/10/26 13:03:46;;;;;;;;;;;;;;;12.94;100.00;98275.39;107599;277;120907;-55
2023/10/26 13:06:24;;;;;;;;;;;;;;;12.94;100.00;98275.08;107633;277;103916;-55
2023/10/26 13:09:00;;;;;;;;;;;;;;;13.00;100.00;98277.30;107583;277;114268;-57
2023/10/26 13:11:34;;;;;;;;;;;;;;;13.04;100.00;98277.01;107638;277;97538;-58
2023/10/26 13:14:11;;;;;;;;;;;;;;;13.04;100.00;98279.35;107621;277;97892;-55
2023/10/26 13:16:44;;;;;;;;;;;;;;;13.05;100.00;98277.61;107459;277;122272;-54
2023/10/26 13:19:21;;;;;;;;;;;;;;;12.99;100.00;98275.50;107599;277;104318;-56
2023/10/26 13:21:56;;;;;;;;;;;;;;;12.97;100.00;98275.84;107590;277;112370;-58
2023/10/26 13:24:30;;;;;;;;;;;;;;;12.93;100.00;98275.82;107458;277;97378;-55